Time;durP1;ratioP1;P1;durP2;ratioP2;P2;SDS_P1;SDS_P2;PMS_P1;PMS_P2;Temp;Humidity;BMP_temperature;BMP_pressure;BME280_temperature;BME280_humidity;BME280_pressure;Samples;Min_cycle;Max_cycle;Signal;HPM_P1;HPM_P2
2023/01/24 00:00:38;;;;;;;107.63;34.57;;;;;;;0.56;100.00;102094.59;4214108;28;20263;-73
2023/01/24 00:03:05;;;;;;;114.87;35.73;;;;;;;0.64;100.00;102095.28;4221176;28;20339;-65
2023/01/24 00:05:36;;;;;;;111.57;34.87;;;;;;;0.61;100.00;102084.88;4206407;28;20232;-67
2023/01/24 00:08:02;;;;;;;120.83;35.83;;;;;;;0.67;100.00;102092.56;4205736;28;20303;-70
2023/01/24 00:10:29;;;;;;;107.97;34.13;;;;;;;0.63;100.00;102094.41;4214358;28;20243;-66
2023/01/24 00:12:56;;;;;;;116.83;34.70;;;;;;;0.54;100.00;102092.03;4226161;28;20578;-70
2023/01/24 00:15:23;;;;;;;103.77;34.67;;;;;;;0.59;100.00;102091.91;4211981;28;20410;-67
2023/01/24 00:17:50;;;;;;;116.27;35.53;;;;;;;0.50;100.00;102086.91;4207437;28;20244;-67
2023/01/24 00:20:16;;;;;;;102.60;33.70;;;;;;;0.51;100.00;102091.25;4209369;28;20232;-68
2023/01/24 00:22:43;;;;;;;112.73;35.70;;;;;;;0.46;100.00;102087.88;4219646;28;23902;-66
2023/01/24 00:25:10;;;;;;;116.97;35.90;;;;;;;0.45;100.00;102086.19;4215467;28;20239;-70
2023/01/24 00:27:37;;;;;;;113.43;37.17;;;;;;;0.59;100.00;102084.91;4210496;28;21004;-73
2023/01/24 00:30:05;;;;;;;117.23;36.07;;;;;;;0.63;100.00;102085.69;4208975;28;20240;-67
2023/01/24 00:32:32;;;;;;;121.17;36.03;;;;;;;0.69;100.00;102085.53;4209753;28;20244;-69
2023/01/24 00:34:59;;;;;;;120.37;37.10;;;;;;;0.64;100.00;102079.56;4215480;28;20478;-70
2023/01/24 00:37:27;;;;;;;121.73;35.73;;;;;;;1.07;100.00;102080.13;4208615;28;22881;-72
2023/01/24 00:39:53;;;;;;;114.17;37.10;;;;;;;0.91;100.00;102085.78;4220377;28;20330;-67
2023/01/24 00:42:20;;;;;;;111.23;37.00;;;;;;;0.88;100.00;102080.66;4213170;28;20309;-71
2023/01/24 00:44:46;;;;;;;107.83;33.57;;;;;;;0.95;100.00;102081.34;4222753;28;21518;-72
2023/01/24 00:47:13;;;;;;;122.57;36.00;;;;;;;1.02;100.00;102088.13;4213188;28;20239;-67
2023/01/24 00:49:40;;;;;;;115.53;35.03;;;;;;;0.86;100.00;102085.06;4216256;28;22407;-68
2023/01/24 00:52:06;;;;;;;116.00;34.77;;;;;;;0.68;100.00;102073.34;4220285;28;20339;-70
2023/01/24 00:54:33;;;;;;;116.00;37.40;;;;;;;0.62;100.00;102079.59;4224368;28;25595;-70
2023/01/24 00:57:00;;;;;;;110.73;35.17;;;;;;;0.65;100.00;102081.25;4200373;28;22852;-70
2023/01/24 00:59:26;;;;;;;97.67;34.07;;;;;;;0.59;100.00;102084.06;4218562;28;21059;-67
2023/01/24 01:01:53;;;;;;;115.37;34.47;;;;;;;0.52;100.00;102085.13;4212974;28;20370;-67
2023/01/24 01:04:20;;;;;;;102.80;34.90;;;;;;;0.61;100.00;102082.25;4208897;28;20229;-69
2023/01/24 01:06:46;;;;;;;109.93;34.70;;;;;;;0.69;100.00;102087.28;4207612;28;25442;-67
2023/01/24 01:09:13;;;;;;;106.80;34.67;;;;;;;0.71;100.00;102080.25;4225223;28;21898;-66
2023/01/24 01:11:41;;;;;;;117.90;33.93;;;;;;;0.66;100.00;102076.91;4207587;28;20239;-70
2023/01/24 01:14:08;;;;;;;111.00;35.63;;;;;;;0.83;100.00;102085.16;4207846;28;20239;-66
2023/01/24 01:16:38;;;;;;;103.87;34.60;;;;;;;0.80;100.00;102083.47;4213332;28;20286;-68
2023/01/24 01:19:05;;;;;;;106.80;35.47;;;;;;;0.61;100.00;102082.25;4214428;28;20246;-69
2023/01/24 01:21:33;;;;;;;101.07;33.57;;;;;;;0.63;100.00;102085.69;4218943;28;20244;-69
2023/01/24 01:24:00;;;;;;;109.73;36.60;;;;;;;0.71;100.00;102086.34;4189432;28;20220;-70
2023/01/24 01:26:27;;;;;;;118.30;35.47;;;;;;;0.65;100.00;102094.38;4189702;28;21843;-69
2023/01/24 01:28:54;;;;;;;121.67;35.03;;;;;;;0.77;100.00;102091.44;4196629;28;20669;-70
2023/01/24 01:31:21;;;;;;;104.63;33.87;;;;;;;0.70;100.00;102092.47;4195099;28;20269;-67
2023/01/24 01:33:48;;;;;;;111.90;33.90;;;;;;;0.74;100.00;102085.41;4191752;28;23934;-66
2023/01/24 01:36:14;;;;;;;111.50;35.13;;;;;;;0.74;100.00;102088.88;4188885;28;21334;-70
2023/01/24 01:38:41;;;;;;;109.53;34.23;;;;;;;0.69;100.00;102090.78;4201010;28;22204;-67
2023/01/24 01:41:08;;;;;;;105.43;33.63;;;;;;;0.62;100.00;102084.81;4193401;28;20347;-68
2023/01/24 01:43:35;;;;;;;119.67;35.43;;;;;;;0.74;100.00;102077.53;4193072;28;23610;-70
2023/01/24 01:46:47;;;;;;;107.93;34.63;;;;;;;0.76;100.00;102091.47;4192503;28;20346;-65
2023/01/24 01:49:23;;;;;;;110.30;33.50;;;;;;;0.75;100.00;102089.72;4193506;28;20240;-65
2023/01/24 01:51:51;;;;;;;113.50;35.00;;;;;;;0.73;100.00;102087.16;4183070;28;21321;-67
2023/01/24 01:54:21;;;;;;;113.70;33.83;;;;;;;0.74;100.00;102085.41;4185546;28;20275;-69
2023/01/24 01:56:53;;;;;;;115.23;35.30;;;;;;;0.70;100.00;102089.00;4194510;28;20226;-69
2023/01/24 01:59:35;;;;;;;114.00;36.03;;;;;;;0.73;100.00;102079.31;4189531;28;22325;-67
2023/01/24 02:02:04;;;;;;;126.97;35.30;;;;;;;0.76;100.00;102087.09;4198627;28;20397;-70
2023/01/24 02:04:34;;;;;;;104.90;34.80;;;;;;;0.74;100.00;102078.41;4193031;28;20452;-66
2023/01/24 02:07:10;;;;;;;104.63;34.23;;;;;;;0.80;100.00;102080.88;4196233;28;20235;-68
2023/01/24 02:09:41;;;;;;;115.37;34.47;;;;;;;0.65;100.00;102076.03;4199740;28;20244;-66
2023/01/24 02:12:23;;;;;;;107.67;35.47;;;;;;;0.67;100.00;102076.84;4195156;28;22995;-67
2023/01/24 02:17:39;;;;;;;108.13;33.37;;;;;;;0.79;100.00;102071.25;4227990;28;20300;-67
2023/01/24 02:20:11;;;;;;;117.77;34.07;;;;;;;0.75;100.00;102058.28;4197175;28;20236;-66
2023/01/24 02:23:20;;;;;;;104.57;32.23;;;;;;;0.83;100.00;102062.44;4190327;28;20252;-67
2023/01/24 02:26:24;;;;;;;98.70;32.90;;;;;;;0.89;100.00;102057.91;4178713;28;21551;-64
2023/01/24 02:29:03;;;;;;;104.30;33.50;;;;;;;0.84;100.00;102048.44;4196979;28;20296;-67
2023/01/24 02:32:00;;;;;;;109.20;33.13;;;;;;;0.78;100.00;102048.59;4193167;28;20549;-67
2023/01/24 02:34:27;;;;;;;108.90;33.10;;;;;;;0.73;100.00;102050.50;4208379;28;21232;-68
2023/01/24 02:37:00;;;;;;;108.80;34.57;;;;;;;0.77;100.00;102054.75;4198014;28;20231;-68
2023/01/24 02:39:30;;;;;;;110.83;35.87;;;;;;;0.77;100.00;102057.38;4180703;28;20346;-67
2023/01/24 02:42:02;;;;;;;103.57;36.07;;;;;;;0.81;100.00;102053.75;4205183;28;20295;-67
2023/01/24 02:44:34;;;;;;;101.47;35.23;;;;;;;0.82;100.00;102050.25;4203724;28;20244;-65
2023/01/24 02:47:02;;;;;;;108.13;34.30;;;;;;;0.75;100.00;102058.28;4200233;28;20248;-65
2023/01/24 02:49:28;;;;;;;103.93;33.67;;;;;;;0.73;100.00;102057.50;4188307;28;20853;-65
2023/01/24 02:54:40;;;;;;;111.13;34.23;;;;;;;0.74;100.00;102059.22;4198942;28;20772;-69
2023/01/24 02:59:53;;;;;;;106.47;34.43;;;;;;;0.70;100.00;102061.03;4224472;28;21009;-67
2023/01/24 03:02:19;;;;;;;111.27;34.63;;;;;;;0.66;100.00;102067.28;4195429;28;22038;-69
2023/01/24 03:04:46;;;;;;;111.87;33.97;;;;;;;0.72;100.00;102064.47;4194963;28;20730;-66
2023/01/24 03:07:13;;;;;;;105.63;34.37;;;;;;;0.73;100.00;102075.84;4196244;28;20230;-69
2023/01/24 03:09:48;;;;;;;113.10;33.77;;;;;;;0.80;100.00;102074.78;4192559;28;21826;-72
2023/01/24 03:34:31;;;;;;;108.77;32.97;;;;;;;0.67;100.00;102071.59;4208507;28;20235;-66
2023/01/24 03:36:59;;;;;;;107.30;33.70;;;;;;;0.73;100.00;102071.44;4194592;28;20409;-65
2023/01/24 03:42:11;;;;;;;101.90;32.70;;;;;;;0.85;100.00;102072.88;4193128;28;20406;-68
2023/01/24 03:44:37;;;;;;;93.93;32.07;;;;;;;0.87;100.00;102080.69;4199661;28;20311;-69
2023/01/24 03:47:04;;;;;;;103.60;34.03;;;;;;;0.73;100.00;102076.69;4194845;28;20262;-69
2023/01/24 03:52:28;;;;;;;107.47;32.97;;;;;;;0.76;100.00;102068.75;4201577;28;20407;-69
2023/01/24 03:54:55;;;;;;;109.77;33.00;;;;;;;0.69;100.00;102069.81;4200977;28;25379;-68
2023/01/24 03:57:23;;;;;;;107.47;34.07;;;;;;;0.70;100.00;102068.91;4201013;28;20371;-65
2023/01/24 03:59:49;;;;;;;100.83;32.90;;;;;;;0.78;100.00;102069.56;4201674;28;25500;-66
2023/01/24 04:02:16;;;;;;;100.90;32.83;;;;;;;0.71;100.00;102075.03;4200259;28;20312;-67
2023/01/24 04:07:28;;;;;;;100.87;32.03;;;;;;;0.69;100.00;102079.44;4193453;28;25656;-67
2023/01/24 04:09:55;;;;;;;97.60;32.10;;;;;;;0.69;100.00;102075.03;4193899;28;22426;-67
2023/01/24 04:12:22;;;;;;;112.10;33.07;;;;;;;0.68;100.00;102081.19;4199243;28;20636;-67
2023/01/24 04:14:49;;;;;;;112.47;33.13;;;;;;;0.68;100.00;102089.06;4198136;28;20646;-65
2023/01/24 04:17:15;;;;;;;96.27;33.20;;;;;;;0.70;100.00;102081.13;4193563;28;20229;-68
2023/01/24 04:19:42;;;;;;;102.20;32.27;;;;;;;0.60;100.00;102086.63;4201447;28;20268;-66
2023/01/24 04:22:09;;;;;;;99.00;32.73;;;;;;;0.62;100.00;102086.59;4198117;28;23041;-68
2023/01/24 04:24:35;;;;;;;101.33;33.20;;;;;;;0.72;100.00;102095.91;4196998;28;20382;-69
2023/01/24 04:27:02;;;;;;;102.67;34.20;;;;;;;0.66;100.00;102090.84;4195097;28;20512;-68
2023/01/24 04:29:28;;;;;;;109.03;35.07;;;;;;;0.73;100.00;102084.56;4188964;28;20225;-68
2023/01/24 04:31:55;;;;;;;110.57;34.30;;;;;;;0.70;100.00;102081.13;4200270;28;20542;-68
2023/01/24 04:34:22;;;;;;;107.00;31.93;;;;;;;0.81;100.00;102085.19;4196721;28;20238;-67
2023/01/24 04:36:48;;;;;;;104.47;32.30;;;;;;;0.73;100.00;102081.94;4199866;28;22362;-66
2023/01/24 04:39:15;;;;;;;101.67;33.50;;;;;;;0.84;100.00;102085.13;4200209;28;21697;-66
2023/01/24 04:41:42;;;;;;;103.90;32.57;;;;;;;1.15;100.00;102091.28;4196183;28;20271;-68
2023/01/24 04:44:08;;;;;;;114.23;33.37;;;;;;;1.11;100.00;102081.78;4203583;28;20720;-68
2023/01/24 04:46:35;;;;;;;96.27;33.30;;;;;;;1.05;100.00;102088.03;4191222;28;20438;-70
2023/01/24 04:49:02;;;;;;;101.97;32.33;;;;;;;1.71;100.00;102094.00;4192867;28;20324;-66
2023/01/24 04:51:28;;;;;;;102.73;34.07;;;;;;;1.03;100.00;102092.44;4198821;28;20241;-69
2023/01/24 04:53:55;;;;;;;95.50;30.53;;;;;;;0.73;100.00;102087.16;4196780;28;20675;-65
2023/01/24 04:56:22;;;;;;;98.87;31.50;;;;;;;0.72;100.00;102082.81;4203499;28;21509;-68
2023/01/24 04:58:48;;;;;;;96.60;31.43;;;;;;;0.67;100.00;102091.72;4202403;28;20239;-70
2023/01/24 05:01:15;;;;;;;103.90;30.53;;;;;;;0.66;100.00;102096.09;4201702;28;20299;-67
2023/01/24 05:03:41;;;;;;;93.63;31.93;;;;;;;0.77;100.00;102098.41;4204180;28;22123;-68
2023/01/24 05:06:08;;;;;;;94.73;32.30;;;;;;;1.74;100.00;102095.66;4199216;28;20229;-65
2023/01/24 05:08:34;;;;;;;104.13;33.20;;;;;;;1.76;100.00;102091.22;4199779;28;22201;-67
2023/01/24 05:11:03;;;;;;;96.70;32.63;;;;;;;1.67;100.00;102093.22;4202098;28;20241;-67
2023/01/24 05:13:29;;;;;;;97.90;31.63;;;;;;;1.65;100.00;102095.03;4205377;28;20300;-68
2023/01/24 05:15:56;;;;;;;105.03;32.63;;;;;;;1.60;100.00;102102.19;4192921;28;21977;-68
2023/01/24 05:18:22;;;;;;;96.13;32.10;;;;;;;1.51;100.00;102097.19;4184881;28;20624;-67
2023/01/24 05:20:49;;;;;;;95.87;31.77;;;;;;;1.54;100.00;102099.72;4193565;28;20229;-67
2023/01/24 05:23:16;;;;;;;97.23;32.13;;;;;;;1.64;100.00;102102.97;4197640;28;20233;-67
2023/01/24 05:25:43;;;;;;;103.70;33.27;;;;;;;1.66;100.00;102107.25;4199182;28;20236;-66
2023/01/24 05:28:09;;;;;;;102.40;31.03;;;;;;;1.65;100.00;102109.91;4192812;28;20264;-66
2023/01/24 05:30:36;;;;;;;92.00;30.50;;;;;;;1.56;100.00;102105.78;4203454;28;20304;-68
2023/01/24 05:33:03;;;;;;;94.93;30.20;;;;;;;1.67;100.00;102108.09;4191150;28;20241;-66
2023/01/24 05:35:30;;;;;;;101.50;30.87;;;;;;;1.72;100.00;102106.19;4192325;28;20255;-71
2023/01/24 05:37:56;;;;;;;97.63;31.57;;;;;;;1.79;100.00;102101.63;4193793;28;20315;-66
2023/01/24 05:40:23;;;;;;;101.43;31.23;;;;;;;1.93;100.00;102112.53;4193069;28;20249;-67
2023/01/24 05:42:49;;;;;;;83.97;30.47;;;;;;;1.84;100.00;102107.56;4202571;28;20723;-66
2023/01/24 05:45:16;;;;;;;109.17;35.43;;;;;;;1.88;100.00;102115.31;4206270;28;22133;-68
2023/01/24 05:47:43;;;;;;;99.50;32.00;;;;;;;1.83;100.00;102125.09;4204224;28;20239;-68
2023/01/24 05:50:10;;;;;;;94.43;30.23;;;;;;;1.80;100.00;102119.06;4192419;28;20231;-69
2023/01/24 05:52:36;;;;;;;99.70;32.30;;;;;;;1.91;100.00;102124.84;4187940;28;23101;-66
2023/01/24 05:55:03;;;;;;;100.60;32.93;;;;;;;1.96;100.00;102122.09;4195195;28;20607;-69
2023/01/24 05:57:30;;;;;;;97.43;30.93;;;;;;;1.95;100.00;102126.47;4192868;28;20236;-67
2023/01/24 05:59:57;;;;;;;88.93;31.17;;;;;;;1.98;100.00;102122.91;4210479;28;20524;-69
2023/01/24 06:02:24;;;;;;;101.93;30.87;;;;;;;1.89;100.00;102127.50;4199959;28;20272;-67
2023/01/24 06:04:50;;;;;;;98.37;31.13;;;;;;;2.10;100.00;102120.72;4199348;28;25516;-67
2023/01/24 06:07:17;;;;;;;88.70;31.30;;;;;;;2.44;100.00;102121.44;4193580;28;20243;-67
2023/01/24 06:09:44;;;;;;;92.07;30.73;;;;;;;1.77;100.00;102119.19;4187300;28;20280;-68
2023/01/24 06:12:10;;;;;;;93.87;30.20;;;;;;;1.77;100.00;102124.44;4192620;28;22620;-67
2023/01/24 06:14:37;;;;;;;99.40;32.00;;;;;;;1.82;100.00;102119.88;4189971;28;20224;-68
2023/01/24 06:17:04;;;;;;;102.40;32.73;;;;;;;1.77;100.00;102125.28;4189262;28;21430;-66
2023/01/24 06:19:30;;;;;;;101.20;31.70;;;;;;;1.69;100.00;102122.91;4192637;28;25943;-69
2023/01/24 06:22:08;;;;;;;100.30;32.00;;;;;;;1.85;100.00;102127.66;4195946;28;20228;-69
2023/01/24 06:24:38;;;;;;;95.80;31.27;;;;;;;1.68;100.00;102131.66;4196423;28;20415;-67
2023/01/24 06:27:05;;;;;;;89.53;32.23;;;;;;;1.36;100.00;102129.13;4192875;28;20308;-69
2023/01/24 06:29:31;;;;;;;96.37;32.93;;;;;;;1.26;100.00;102128.53;4193349;28;20430;-65
2023/01/24 06:32:18;;;;;;;99.53;32.30;;;;;;;1.54;100.00;102139.06;4200768;28;21428;-69
2023/01/24 06:35:07;;;;;;;92.43;30.03;;;;;;;1.51;100.00;102147.03;4210670;28;20403;-67
2023/01/24 06:37:48;;;;;;;91.00;31.10;;;;;;;1.62;100.00;102144.13;4209744;28;20318;-67
2023/01/24 06:40:18;;;;;;;87.83;30.90;;;;;;;1.63;100.00;102138.81;4185642;28;21441;-66
2023/01/24 06:42:45;;;;;;;83.50;29.73;;;;;;;1.65;100.00;102142.25;4212225;28;25401;-70
2023/01/24 06:45:12;;;;;;;88.37;29.37;;;;;;;1.70;100.00;102150.00;4194378;28;20866;-71
2023/01/24 06:47:39;;;;;;;94.13;30.40;;;;;;;1.67;100.00;102163.22;4199082;28;20426;-72
2023/01/24 06:50:08;;;;;;;84.53;28.50;;;;;;;1.77;100.00;102164.66;4193628;28;20368;-72
2023/01/24 06:52:34;;;;;;;84.67;30.67;;;;;;;1.82;100.00;102164.50;4211098;28;20244;-72
2023/01/24 06:55:01;;;;;;;89.80;29.60;;;;;;;1.90;100.00;102179.13;4199784;28;22627;-72
2023/01/24 06:57:28;;;;;;;93.03;32.13;;;;;;;1.94;100.00;102174.63;4231067;28;20273;-73
2023/01/24 06:59:55;;;;;;;89.57;31.20;;;;;;;1.88;100.00;102172.22;4230384;28;20716;-70
2023/01/24 07:02:21;;;;;;;92.13;30.00;;;;;;;1.85;100.00;102175.78;4203426;28;20252;-71
2023/01/24 07:04:48;;;;;;;91.80;29.10;;;;;;;1.76;100.00;102169.97;4199450;28;20227;-70
2023/01/24 07:07:15;;;;;;;93.03;31.33;;;;;;;1.59;100.00;102159.94;4204194;28;21102;-73
2023/01/24 07:09:41;;;;;;;84.03;30.67;;;;;;;1.65;100.00;102163.25;4202574;28;20413;-69
2023/01/24 07:12:08;;;;;;;82.17;30.23;;;;;;;1.68;100.00;102170.16;4208833;28;21699;-70
2023/01/24 07:14:38;;;;;;;88.27;30.27;;;;;;;1.76;100.00;102169.97;4216480;28;20634;-71
2023/01/24 07:17:05;;;;;;;83.53;29.57;;;;;;;1.92;100.00;102165.09;4211752;28;20410;-71
2023/01/24 07:19:32;;;;;;;87.33;29.80;;;;;;;1.89;100.00;102166.03;4202790;28;20225;-70
2023/01/24 07:21:59;;;;;;;88.43;29.53;;;;;;;1.86;100.00;102174.00;4224221;28;20498;-71
2023/01/24 07:24:29;;;;;;;92.47;30.30;;;;;;;1.82;100.00;102169.75;4223809;28;20740;-70
2023/01/24 07:26:57;;;;;;;88.83;30.83;;;;;;;1.84;100.00;102157.44;4208917;28;22210;-70
2023/01/24 07:29:23;;;;;;;89.40;29.97;;;;;;;1.87;100.00;102157.34;4199902;28;20670;-71
2023/01/24 07:31:51;;;;;;;98.53;30.67;;;;;;;1.78;100.00;102162.88;4221956;28;20302;-69
2023/01/24 07:34:18;;;;;;;85.97;30.33;;;;;;;1.80;100.00;102155.81;4207220;28;22157;-71
2023/01/24 07:36:45;;;;;;;86.17;30.03;;;;;;;2.19;100.00;102160.75;4202614;28;20257;-69
2023/01/24 07:39:12;;;;;;;83.70;31.57;;;;;;;1.73;100.00;102164.78;4200167;28;20320;-72
2023/01/24 07:41:42;;;;;;;91.50;31.50;;;;;;;1.74;100.00;102161.28;4213019;28;20375;-70
2023/01/24 07:44:09;;;;;;;89.73;30.63;;;;;;;1.80;100.00;102161.06;4203664;28;20240;-73
2023/01/24 07:46:36;;;;;;;91.57;31.13;;;;;;;1.70;100.00;102163.09;4192712;28;20338;-76
2023/01/24 07:49:03;;;;;;;91.13;31.57;;;;;;;1.72;100.00;102163.06;4208719;28;21935;-74
2023/01/24 07:51:30;;;;;;;95.60;30.13;;;;;;;1.79;100.00;102157.59;4203130;28;20292;-74
2023/01/24 07:53:57;;;;;;;95.40;31.53;;;;;;;1.95;100.00;102168.50;4191569;28;20241;-68
2023/01/24 07:56:23;;;;;;;77.87;30.60;;;;;;;2.10;100.00;102168.00;4201485;28;20322;-72
2023/01/24 07:58:52;;;;;;;92.43;31.33;;;;;;;1.92;100.00;102165.97;4219091;28;20394;-68
2023/01/24 08:01:20;;;;;;;93.07;32.23;;;;;;;1.98;100.00;102168.38;4202240;28;21931;-69
2023/01/24 08:03:47;;;;;;;101.70;32.33;;;;;;;2.10;100.00;102175.03;4196945;28;20344;-71
2023/01/24 08:06:14;;;;;;;81.70;29.60;;;;;;;2.37;100.00;102175.94;4192630;28;21419;-70
2023/01/24 08:08:41;;;;;;;91.53;31.00;;;;;;;2.28;100.00;102174.44;4201945;28;20237;-70
2023/01/24 08:11:11;;;;;;;91.33;31.83;;;;;;;2.20;100.00;102180.84;4201020;28;23434;-70
2023/01/24 08:13:37;;;;;;;83.50;29.67;;;;;;;2.24;100.00;102183.31;4185864;28;20306;-69
2023/01/24 08:16:05;;;;;;;86.07;33.07;;;;;;;2.20;100.00;102179.09;4220839;28;20233;-67
2023/01/24 08:18:32;;;;;;;91.87;32.70;;;;;;;2.25;100.00;102179.81;4204745;28;20228;-69
2023/01/24 08:20:58;;;;;;;88.27;30.83;;;;;;;2.18;100.00;102178.28;4204931;28;20436;-70
2023/01/24 08:23:25;;;;;;;91.83;32.43;;;;;;;2.23;100.00;102180.78;4203939;28;20246;-69
2023/01/24 08:25:52;;;;;;;86.43;32.17;;;;;;;2.25;100.00;102177.19;4201557;28;20346;-73
2023/01/24 08:28:19;;;;;;;95.33;33.20;;;;;;;2.26;100.00;102180.66;4194409;28;20286;-77
2023/01/24 08:30:45;;;;;;;92.87;31.33;;;;;;;2.27;100.00;102182.38;4207799;28;20503;-72
2023/01/24 08:33:17;;;;;;;83.30;30.60;;;;;;;2.31;100.00;102181.38;4239691;28;20240;-71
2023/01/24 08:35:47;;;;;;;87.73;31.07;;;;;;;2.37;100.00;102190.84;4243975;28;20418;-72
2023/01/24 08:38:15;;;;;;;95.23;32.33;;;;;;;2.44;100.00;102184.47;4264057;28;20230;-70
2023/01/24 08:40:43;;;;;;;88.97;32.43;;;;;;;2.44;100.00;102179.22;4245337;28;20300;-73
2023/01/24 08:43:16;;;;;;;90.80;32.73;;;;;;;2.43;100.00;102178.34;4246889;28;20271;-71
2023/01/24 08:45:42;;;;;;;91.17;32.70;;;;;;;2.46;100.00;102178.25;4219539;28;20540;-71
2023/01/24 08:48:09;;;;;;;94.13;31.40;;;;;;;2.57;100.00;102183.16;4211276;28;20232;-71
2023/01/24 08:50:36;;;;;;;88.63;32.73;;;;;;;2.69;100.00;102181.88;4207684;28;20519;-67
2023/01/24 08:53:02;;;;;;;89.80;32.97;;;;;;;2.83;100.00;102192.78;4204493;28;20233;-71
2023/01/24 08:55:29;;;;;;;103.30;34.27;;;;;;;2.73;100.00;102191.41;4196452;28;21336;-70
2023/01/24 08:58:00;;;;;;;97.67;34.17;;;;;;;2.79;100.00;102183.31;4207550;28;21160;-71
2023/01/24 09:00:27;;;;;;;102.73;34.10;;;;;;;2.78;100.00;102183.34;4201704;28;20981;-71
2023/01/24 09:02:53;;;;;;;96.80;32.57;;;;;;;2.84;100.00;102191.91;4190011;28;20235;-69
2023/01/24 09:05:20;;;;;;;89.37;32.60;;;;;;;2.77;100.00;102197.44;4199008;28;21822;-69
2023/01/24 09:07:47;;;;;;;90.40;32.43;;;;;;;2.75;100.00;102190.44;4219399;28;20288;-70
2023/01/24 09:10:14;;;;;;;95.50;34.33;;;;;;;2.88;100.00;102196.16;4194637;28;20337;-68
2023/01/24 09:12:41;;;;;;;92.60;31.90;;;;;;;2.91;100.00;102184.66;4205770;28;21303;-66
2023/01/24 09:15:08;;;;;;;89.43;31.47;;;;;;;2.91;100.00;102185.53;4220947;28;25534;-73
2023/01/24 09:17:34;;;;;;;84.40;30.77;;;;;;;2.79;100.00;102190.34;4198679;28;23274;-73
2023/01/24 09:20:01;;;;;;;87.17;30.73;;;;;;;2.72;100.00;102182.66;4207401;28;22292;-70
2023/01/24 09:22:28;;;;;;;79.17;31.60;;;;;;;2.91;100.00;102171.53;4199648;28;20237;-73
2023/01/24 09:24:54;;;;;;;90.37;32.97;;;;;;;2.97;100.00;102176.53;4205573;28;20686;-74
2023/01/24 09:27:21;;;;;;;83.47;31.70;;;;;;;3.10;100.00;102175.22;4194811;28;22155;-68
2023/01/24 09:29:48;;;;;;;75.40;29.17;;;;;;;3.17;100.00;102174.09;4202818;28;21058;-71
2023/01/24 09:32:16;;;;;;;73.70;29.33;;;;;;;3.10;100.00;102169.09;4197774;28;20236;-68
2023/01/24 09:34:46;;;;;;;78.60;29.60;;;;;;;3.30;100.00;102171.91;4209583;28;20237;-69
2023/01/24 09:37:19;;;;;;;68.63;28.07;;;;;;;3.16;100.00;102176.75;4194139;28;20239;-68
2023/01/24 09:39:46;;;;;;;79.27;29.27;;;;;;;2.68;100.00;102172.28;4211407;28;20290;-70
2023/01/24 09:42:40;;;;;;;73.97;28.43;;;;;;;2.58;100.00;102178.78;4192873;28;20237;-68
2023/01/24 09:45:12;;;;;;;77.27;28.50;;;;;;;2.68;100.00;102177.56;4206015;28;20232;-71
2023/01/24 09:47:48;;;;;;;76.03;29.43;;;;;;;2.73;100.00;102173.84;4202377;28;21719;-74
2023/01/24 09:50:17;;;;;;;77.60;29.50;;;;;;;2.72;100.00;102169.50;4188009;28;22452;-69
2023/01/24 09:52:46;;;;;;;82.40;29.43;;;;;;;2.72;100.00;102179.19;4196607;28;21035;-67
2023/01/24 09:55:23;;;;;;;80.07;30.57;;;;;;;2.63;100.00;102182.09;4191062;28;20596;-68
2023/01/24 09:58:31;;;;;;;74.80;30.67;;;;;;;2.53;100.00;102184.19;4191751;28;20274;-72
2023/01/24 10:01:05;;;;;;;75.00;28.80;;;;;;;2.60;100.00;102185.69;4203502;28;23208;-70
2023/01/24 10:03:32;;;;;;;77.13;29.17;;;;;;;2.58;100.00;102182.25;4188820;28;20242;-68
2023/01/24 10:06:15;;;;;;;74.10;28.67;;;;;;;2.58;100.00;102184.03;4190479;28;21396;-69
2023/01/24 10:08:59;;;;;;;74.03;28.43;;;;;;;2.54;100.00;102192.00;4196598;28;20245;-69
2023/01/24 10:11:48;;;;;;;73.90;28.80;;;;;;;2.62;100.00;102193.50;4197046;28;20309;-67
2023/01/24 10:14:33;;;;;;;79.13;27.63;;;;;;;2.64;100.00;102189.06;4194080;28;20449;-67
2023/01/24 10:17:35;;;;;;;72.70;26.53;;;;;;;2.56;100.00;102191.09;4215390;28;22044;-68
2023/01/24 10:20:17;;;;;;;67.00;27.10;;;;;;;2.60;100.00;102187.44;4213507;28;20267;-67
2023/01/24 10:23:00;;;;;;;70.40;25.97;;;;;;;2.62;100.00;102193.50;4210418;28;20300;-66
2023/01/24 10:25:33;;;;;;;68.60;26.37;;;;;;;2.64;100.00;102181.19;4192569;28;20327;-69
2023/01/24 10:28:01;;;;;;;74.17;25.77;;;;;;;2.66;100.00;102184.63;4201754;28;20283;-68
2023/01/24 10:30:41;;;;;;;68.73;26.07;;;;;;;2.53;100.00;102179.78;4196379;28;20235;-72
2023/01/24 10:33:16;;;;;;;75.93;25.37;;;;;;;2.73;100.00;102187.00;4201533;28;20225;-69
2023/01/24 10:35:47;;;;;;;61.83;24.03;;;;;;;2.73;100.00;102191.41;4205221;28;22335;-70
2023/01/24 10:38:16;;;;;;;68.00;25.27;;;;;;;2.70;100.00;102188.88;4205225;28;24094;-68
2023/01/24 10:41:04;;;;;;;63.13;23.53;;;;;;;2.73;100.00;102187.00;4202089;28;22298;-71
2023/01/24 10:43:31;;;;;;;67.40;24.63;;;;;;;2.72;100.00;102187.91;4216644;28;20322;-70
2023/01/24 10:46:15;;;;;;;67.37;26.13;;;;;;;2.78;100.00;102178.94;4198284;28;20335;-69
2023/01/24 10:48:46;;;;;;;74.97;26.90;;;;;;;2.75;100.00;102173.81;4194328;28;20240;-69
2023/01/24 10:51:24;;;;;;;71.87;27.60;;;;;;;2.80;100.00;102161.34;4207428;28;20242;-69
2023/01/24 10:53:51;;;;;;;66.57;25.73;;;;;;;2.91;100.00;102169.75;4172621;28;20308;-71
2023/01/24 10:56:19;;;;;;;70.63;25.47;;;;;;;2.90;100.00;102172.41;4180042;28;25895;-71
2023/01/24 10:59:12;;;;;;;72.70;27.37;;;;;;;2.93;100.00;102167.94;4200130;28;20384;-68
2023/01/24 11:01:44;;;;;;;73.47;27.37;;;;;;;2.81;100.00;102168.34;4190223;28;20244;-68
2023/01/24 11:04:27;;;;;;;76.93;27.73;;;;;;;2.96;100.00;102167.81;4194216;28;21436;-70
2023/01/24 11:06:54;;;;;;;77.60;29.53;;;;;;;3.01;100.00;102170.28;4193914;28;22063;-68
2023/01/24 11:09:26;;;;;;;78.40;27.87;;;;;;;3.05;100.00;102165.78;4196724;28;21674;-67
2023/01/24 11:11:54;;;;;;;73.13;29.63;;;;;;;3.03;100.00;102163.19;4196253;28;20236;-69
2023/01/24 11:14:23;;;;;;;76.83;29.27;;;;;;;2.85;100.00;102159.44;4219263;28;21607;-70
2023/01/24 11:16:52;;;;;;;86.70;31.27;;;;;;;2.92;100.00;102160.94;4190795;28;20304;-69
2023/01/24 11:19:25;;;;;;;88.63;31.03;;;;;;;2.89;100.00;102155.78;4204795;28;20231;-69
2023/01/24 11:21:55;;;;;;;80.27;30.37;;;;;;;3.03;100.00;102160.56;4217306;28;20473;-68
2023/01/24 11:24:22;;;;;;;80.47;30.07;;;;;;;3.07;100.00;102161.34;4196089;28;21805;-68
2023/01/24 11:27:14;;;;;;;82.67;30.50;;;;;;;2.89;100.00;102161.03;4195476;28;20228;-68
2023/01/24 11:29:40;;;;;;;87.97;30.27;;;;;;;2.77;100.00;102158.84;4210181;28;23593;-69
2023/01/24 11:32:35;;;;;;;76.10;29.73;;;;;;;2.69;100.00;102163.50;4200174;28;20225;-71
2023/01/24 11:35:08;;;;;;;86.60;30.27;;;;;;;2.47;100.00;102163.34;4214038;28;20232;-68
2023/01/24 11:37:56;;;;;;;80.70;31.73;;;;;;;2.69;100.00;102158.22;4195449;28;20713;-69
2023/01/24 11:40:40;;;;;;;82.13;31.33;;;;;;;2.84;100.00;102149.84;4208215;28;22579;-70
2023/01/24 11:43:07;;;;;;;76.27;31.67;;;;;;;2.72;100.00;102147.63;4188730;28;20836;-68
2023/01/24 11:45:58;;;;;;;85.93;31.77;;;;;;;2.81;100.00;102139.44;4192340;28;22020;-68
2023/01/24 11:48:35;;;;;;;89.90;34.53;;;;;;;2.82;100.00;102142.91;4201015;28;21187;-67
2023/01/24 11:51:09;;;;;;;76.93;29.83;;;;;;;2.92;100.00;102139.91;4198918;28;22963;-70
2023/01/24 11:53:58;;;;;;;75.17;30.07;;;;;;;2.75;100.00;102142.25;4198048;28;20246;-69
2023/01/24 11:56:34;;;;;;;81.87;30.63;;;;;;;2.80;100.00;102145.59;4193946;28;20263;-67
2023/01/24 11:59:11;;;;;;;80.63;29.67;;;;;;;2.78;100.00;102146.56;4196744;28;20368;-70